Time,TemperatureF,DewpointF,PressureIn,WindDirection,WindDirectionDegrees,WindSpeedMPH,WindSpeedGustMPH,Humidity,HourlyPrecipIn,Conditions,Clouds,dailyrainin,SoftwareType,DateUTC
2013-06-10 00:02:00,61.9,60.1,-100.00,East,101,0.0,0.0,94,0.00,,,0.35,meteohub,2013-06-10 05:02:00,
2013-06-10 00:07:00,61.9,60.1,-100.00,East,101,0.0,1.0,94,0.00,,,0.35,meteohub,2013-06-10 05:07:00,
2013-06-10 00:12:00,62.1,60.3,-100.00,East,101,0.0,1.0,94,0.00,,,0.35,meteohub,2013-06-10 05:12:00,
2013-06-10 00:17:00,62.1,60.3,-100.00,East,101,0.0,0.0,94,0.00,,,0.35,meteohub,2013-06-10 05:17:00,
2013-06-10 00:22:00,62.1,60.3,-100.00,East,101,0.0,0.0,94,0.00,,,0.35,meteohub,2013-06-10 05:22:00,
2013-06-10 00:27:00,62.1,60.6,-100.00,East,101,0.0,0.0,95,0.00,,,0.35,meteohub,2013-06-10 05:27:00,
2013-06-10 00:32:00,62.1,60.6,-100.00,East,101,0.0,0.0,95,0.00,,,0.35,meteohub,2013-06-10 05:32:00,
2013-06-10 00:37:00,62.2,60.8,-100.00,East,101,0.0,0.0,95,0.00,,,0.35,meteohub,2013-06-10 05:37:00,
2013-06-10 00:42:00,62.2,60.8,-100.00,East,101,0.0,0.0,95,0.00,,,0.35,meteohub,2013-06-10 05:42:00,
2013-06-10 00:47:00,62.2,60.8,-100.00,East,101,0.0,0.0,95,0.00,,,0.35,meteohub,2013-06-10 05:47:00,
2013-06-10 00:52:00,62.2,60.8,-100.00,East,101,0.0,0.0,95,0.00,,,0.35,meteohub,2013-06-10 05:52:00,
2013-06-10 00:57:00,62.2,60.8,-100.00,East,101,0.0,0.0,95,0.00,,,0.35,meteohub,2013-06-10 05:57:00,
2013-06-10 01:02:00,62.2,60.8,-100.00,East,101,0.0,1.0,95,0.00,,,0.35,meteohub,2013-06-10 06:02:00,
2013-06-10 01:07:00,62.1,60.6,-100.00,East,101,0.0,1.0,95,0.00,,,0.35,meteohub,2013-06-10 06:07:00,
2013-06-10 01:12:00,62.2,60.8,-100.00,East,101,0.0,1.0,95,0.00,,,0.35,meteohub,2013-06-10 06:12:00,
2013-06-10 01:17:00,62.2,60.8,-100.00,East,101,0.0,0.0,95,0.00,,,0.35,meteohub,2013-06-10 06:17:00,
2013-06-10 01:22:00,62.2,60.8,-100.00,East,101,0.0,0.0,95,0.00,,,0.35,meteohub,2013-06-10 06:22:00,
2013-06-10 01:27:00,62.4,61.0,-100.00,East,101,0.0,1.0,95,0.00,,,0.35,meteohub,2013-06-10 06:27:00,
2013-06-10 01:32:00,62.4,61.0,-100.00,SSE,159,0.0,5.0,95,0.00,,,0.35,meteohub,2013-06-10 06:32:00,
2013-06-10 01:37:00,62.4,61.0,-100.00,SSW,198,2.0,5.0,95,0.00,,,0.35,meteohub,2013-06-10 06:37:00,
2013-06-10 01:42:00,62.4,61.0,-100.00,SSW,198,0.0,5.0,95,0.00,,,0.35,meteohub,2013-06-10 06:42:00,
2013-06-10 01:47:00,62.4,61.0,-100.00,SSW,198,0.0,4.0,95,0.00,,,0.35,meteohub,2013-06-10 06:47:00,
2013-06-10 01:52:00,62.4,61.0,-100.00,SSW,198,3.0,4.0,95,0.00,,,0.35,meteohub,2013-06-10 06:52:00,
2013-06-10 01:57:00,62.4,61.0,-100.00,SSW,198,0.0,3.0,95,0.00,,,0.35,meteohub,2013-06-10 06:57:00,
2013-06-10 02:02:00,62.4,61.0,-100.00,SSW,198,0.0,3.0,95,0.00,,,0.35,meteohub,2013-06-10 07:02:00,
2013-06-10 02:07:00,62.4,61.0,-100.00,SSW,198,0.0,3.0,95,0.00,,,0.35,meteohub,2013-06-10 07:07:00,
2013-06-10 02:12:00,62.4,61.0,-100.00,SSW,198,0.0,1.0,95,0.00,,,0.35,meteohub,2013-06-10 07:12:00,
2013-06-10 02:17:00,62.4,61.0,-100.00,SSW,198,0.0,1.0,95,0.00,,,0.35,meteohub,2013-06-10 07:17:00,
2013-06-10 02:22:00,62.4,61.0,-100.00,SSW,198,0.0,1.0,95,0.00,,,0.35,meteohub,2013-06-10 07:22:00,
2013-06-10 02:27:00,62.4,61.0,-100.00,SSW,208,0.0,1.0,95,0.00,,,0.35,meteohub,2013-06-10 07:27:00,
2013-06-10 02:32:00,62.4,61.0,-100.00,West,267,2.0,4.0,95,0.00,,,0.35,meteohub,2013-06-10 07:32:00,
2013-06-10 02:37:00,62.4,61.0,-100.00,WSW,240,2.0,6.0,95,0.00,,,0.35,meteohub,2013-06-10 07:37:00,
2013-06-10 02:42:00,62.4,61.0,-100.00,WSW,238,0.0,6.0,95,0.00,,,0.35,meteohub,2013-06-10 07:42:00,
2013-06-10 02:47:00,62.2,60.8,-100.00,SW,230,1.0,6.0,95,0.00,,,0.35,meteohub,2013-06-10 07:47:00,
2013-06-10 02:51:00,62.2,60.8,-100.00,West,263,1.0,6.0,95,0.00,,,0.35,meteohub,2013-06-10 07:51:00,
2013-06-10 02:56:00,62.2,60.8,-100.00,WSW,247,1.0,6.0,95,0.00,,,0.35,meteohub,2013-06-10 07:56:00,
2013-06-10 03:01:00,62.2,60.8,-100.00,SW,217,0.0,6.0,95,0.00,,,0.35,meteohub,2013-06-10 08:01:00,
2013-06-10 03:06:00,62.2,60.8,-100.00,SW,218,0.0,6.0,95,0.00,,,0.35,meteohub,2013-06-10 08:06:00,
2013-06-10 03:11:00,62.2,60.8,-100.00,SW,234,0.0,5.0,95,0.00,,,0.35,meteohub,2013-06-10 08:11:00,
2013-06-10 03:16:00,62.2,60.8,-100.00,SW,234,2.0,3.0,95,0.00,,,0.35,meteohub,2013-06-10 08:16:00,
2013-06-10 03:21:00,62.2,60.8,-100.00,WSW,253,0.0,3.0,95,0.00,,,0.35,meteohub,2013-06-10 08:21:00,
2013-06-10 03:26:00,62.2,60.8,-100.00,WSW,253,0.0,3.0,95,0.00,,,0.35,meteohub,2013-06-10 08:26:00,
2013-06-10 03:31:00,62.2,60.8,-100.00,WSW,246,0.0,3.0,95,0.00,,,0.35,meteohub,2013-06-10 08:31:00,
2013-06-10 03:36:00,62.2,60.8,-100.00,WSW,247,0.0,2.0,95,0.00,,,0.35,meteohub,2013-06-10 08:36:00,
2013-06-10 03:41:00,62.2,60.8,-100.00,WSW,246,0.0,1.0,95,0.00,,,0.35,meteohub,2013-06-10 08:41:00,
2013-06-10 03:46:00,62.2,60.8,-100.00,WSW,247,0.0,1.0,95,0.00,,,0.35,meteohub,2013-06-10 08:46:00,
2013-06-10 03:51:00,62.2,60.8,-100.00,WSW,247,0.0,2.0,95,0.00,,,0.35,meteohub,2013-06-10 08:51:00,
2013-06-10 03:57:00,62.4,61.0,-100.00,WSW,246,1.0,2.0,95,0.00,,,0.35,meteohub,2013-06-10 08:57:00,
2013-06-10 04:02:00,62.4,61.0,-100.00,WSW,246,0.0,2.0,95,0.00,,,0.35,meteohub,2013-06-10 09:02:00,
2013-06-10 04:07:00,62.4,61.0,-100.00,WSW,246,0.0,1.0,95,0.00,,,0.35,meteohub,2013-06-10 09:07:00,
2013-06-10 04:12:00,62.4,61.0,-100.00,SW,224,2.0,2.0,95,0.00,,,0.35,meteohub,2013-06-10 09:12:00,
2013-06-10 04:17:00,62.4,61.0,-100.00,SW,224,0.0,5.0,95,0.00,,,0.35,meteohub,2013-06-10 09:17:00,
2013-06-10 04:22:00,62.4,61.0,-100.00,SW,223,0.0,5.0,95,0.00,,,0.35,meteohub,2013-06-10 09:22:00,
2013-06-10 04:27:00,62.4,61.0,-100.00,SW,225,0.0,5.0,95,0.00,,,0.35,meteohub,2013-06-10 09:27:00,
2013-06-10 04:32:00,62.4,61.0,-100.00,SW,225,0.0,2.0,95,0.00,,,0.35,meteohub,2013-06-10 09:32:00,
2013-06-10 04:37:00,62.4,61.0,-100.00,WSW,255,5.0,5.0,95,0.00,,,0.35,meteohub,2013-06-10 09:37:00,
2013-06-10 04:42:00,62.4,61.0,-100.00,West,273,3.0,5.0,95,0.00,,,0.35,meteohub,2013-06-10 09:42:00,
2013-06-10 04:47:00,62.4,61.0,-100.00,West,271,0.0,5.0,95,0.00,,,0.35,meteohub,2013-06-10 09:47:00,
2013-06-10 04:52:00,62.4,61.0,-100.00,West,271,0.0,5.0,95,0.00,,,0.35,meteohub,2013-06-10 09:52:00,
2013-06-10 04:57:00,62.4,61.0,-100.00,West,271,0.0,5.0,95,0.00,,,0.35,meteohub,2013-06-10 09:57:00,
2013-06-10 05:02:00,62.6,61.2,-100.00,West,271,0.0,1.0,95,0.00,,,0.35,meteohub,2013-06-10 10:02:00,
2013-06-10 05:07:00,62.6,61.2,-100.00,West,275,0.0,4.0,95,0.00,,,0.35,meteohub,2013-06-10 10:07:00,
2013-06-10 05:12:00,62.6,61.2,-100.00,West,272,0.0,4.0,95,0.00,,,0.35,meteohub,2013-06-10 10:12:00,
2013-06-10 05:17:00,62.6,61.2,-100.00,West,275,3.0,4.0,95,0.00,,,0.35,meteohub,2013-06-10 10:17:00,
2013-06-10 05:22:00,62.6,61.2,-100.00,West,273,0.0,5.0,95,0.00,,,0.35,meteohub,2013-06-10 10:22:00,
2013-06-10 05:27:00,62.6,61.2,-100.00,West,272,0.0,5.0,95,0.00,,,0.35,meteohub,2013-06-10 10:27:00,
2013-06-10 05:32:00,62.6,61.2,-100.00,West,271,2.0,5.0,95,0.00,,,0.35,meteohub,2013-06-10 10:32:00,
2013-06-10 05:37:00,62.6,61.2,-100.00,West,277,0.0,4.0,95,0.00,,,0.35,meteohub,2013-06-10 10:37:00,
2013-06-10 05:42:00,62.6,61.2,-100.00,West,272,0.0,5.0,95,0.00,,,0.35,meteohub,2013-06-10 10:42:00,
2013-06-10 05:47:00,62.8,61.3,-100.00,West,272,0.0,5.0,95,0.00,,,0.35,meteohub,2013-06-10 10:47:00,
2013-06-10 05:52:00,62.8,61.3,-100.00,West,271,0.0,5.0,95,0.00,,,0.35,meteohub,2013-06-10 10:52:00,
2013-06-10 05:57:00,62.8,61.3,-100.00,West,278,2.0,3.0,95,0.00,,,0.35,meteohub,2013-06-10 10:57:00,
2013-06-10 06:02:00,62.8,61.3,-100.00,WNW,290,0.0,4.0,95,0.00,,,0.35,meteohub,2013-06-10 11:02:00,
2013-06-10 06:07:00,62.8,61.3,-100.00,WNW,288,0.0,6.0,95,0.00,,,0.35,meteohub,2013-06-10 11:07:00,
2013-06-10 06:12:00,62.8,61.3,-100.00,West,280,0.0,6.0,95,0.00,,,0.35,meteohub,2013-06-10 11:12:00,
2013-06-10 06:17:00,62.8,61.3,-100.00,West,277,0.0,6.0,95,0.00,,,0.35,meteohub,2013-06-10 11:17:00,
2013-06-10 06:22:00,62.8,61.3,-100.00,West,275,4.0,6.0,95,0.00,,,0.35,meteohub,2013-06-10 11:22:00,
2013-06-10 06:27:00,63.0,61.5,-100.00,West,272,0.0,5.0,95,0.00,,,0.35,meteohub,2013-06-10 11:27:00,
2013-06-10 06:32:00,63.0,61.5,-100.00,WSW,257,0.0,5.0,95,0.00,,,0.35,meteohub,2013-06-10 11:32:00,
2013-06-10 06:37:00,63.0,61.5,-100.00,WSW,257,0.0,5.0,95,0.00,,,0.35,meteohub,2013-06-10 11:37:00,
2013-06-10 06:42:00,63.1,61.7,-100.00,WSW,257,0.0,5.0,95,0.00,,,0.35,meteohub,2013-06-10 11:42:00,
2013-06-10 06:47:00,63.1,61.7,-100.00,WSW,257,0.0,5.0,95,0.00,,,0.35,meteohub,2013-06-10 11:47:00,
2013-06-10 06:52:00,63.3,61.9,-100.00,WSW,257,0.0,1.0,95,0.00,,,0.35,meteohub,2013-06-10 11:52:00,
2013-06-10 06:57:00,63.3,61.9,-100.00,WSW,249,0.0,1.0,95,0.00,,,0.35,meteohub,2013-06-10 11:57:00,
2013-06-10 07:02:00,63.7,62.2,-100.00,West,261,0.0,5.0,95,0.00,,,0.35,meteohub,2013-06-10 12:02:00,
2013-06-10 07:07:00,63.9,62.4,-100.00,West,260,0.0,5.0,95,0.00,,,0.35,meteohub,2013-06-10 12:07:00,
2013-06-10 07:12:00,63.9,62.4,-100.00,West,261,0.0,5.0,95,0.00,,,0.35,meteohub,2013-06-10 12:12:00,
2013-06-10 07:17:00,63.9,62.4,-100.00,West,271,0.0,1.0,95,0.00,,,0.35,meteohub,2013-06-10 12:17:00,
2013-06-10 07:22:00,64.0,62.6,-100.00,West,275,5.0,5.0,95,0.00,,,0.35,meteohub,2013-06-10 12:22:00,
2013-06-10 07:27:00,64.0,62.6,-100.00,West,281,0.0,6.0,95,0.00,,,0.35,meteohub,2013-06-10 12:27:00,
2013-06-10 07:32:00,64.0,62.6,-100.00,WNW,295,3.0,6.0,95,0.00,,,0.35,meteohub,2013-06-10 12:32:00,
2013-06-10 07:37:00,64.2,62.8,-100.00,WNW,288,0.0,5.0,95,0.00,,,0.35,meteohub,2013-06-10 12:37:00,
2013-06-10 07:42:00,64.2,62.8,-100.00,West,277,0.0,4.0,95,0.00,,,0.35,meteohub,2013-06-10 12:42:00,
2013-06-10 07:47:00,64.4,63.0,-100.00,West,269,3.0,5.0,95,0.00,,,0.35,meteohub,2013-06-10 12:47:00,
2013-06-10 07:52:00,64.6,63.1,-100.00,West,259,0.0,6.0,95,0.00,,,0.35,meteohub,2013-06-10 12:52:00,
2013-06-10 07:57:00,64.9,63.5,-100.00,West,271,0.0,7.0,95,0.00,,,0.35,meteohub,2013-06-10 12:57:00,
2013-06-10 08:02:00,64.9,63.1,-100.00,West,279,0.0,7.0,94,0.00,,,0.35,meteohub,2013-06-10 13:02:00,
2013-06-10 08:08:00,64.9,63.1,-100.00,West,272,0.0,7.0,94,0.00,,,0.35,meteohub,2013-06-10 13:08:00,
2013-06-10 08:13:00,64.8,63.0,-100.00,WNW,289,0.0,3.0,94,0.00,,,0.35,meteohub,2013-06-10 13:13:00,
2013-06-10 08:18:00,64.9,63.1,-100.00,WNW,288,0.0,2.0,94,0.00,,,0.35,meteohub,2013-06-10 13:18:00,
2013-06-10 08:23:00,65.1,63.0,-100.00,NW,311,0.0,2.0,93,0.00,,,0.35,meteohub,2013-06-10 13:23:00,
2013-06-10 08:28:00,65.5,63.3,-100.00,NNW,330,0.0,9.0,93,0.00,,,0.35,meteohub,2013-06-10 13:28:00,
2013-06-10 08:33:00,66.0,63.9,-100.00,NW,313,0.0,9.0,93,0.00,,,0.35,meteohub,2013-06-10 13:33:00,
2013-06-10 08:38:00,66.6,63.9,-100.00,NW,322,0.0,9.0,91,0.00,,,0.35,meteohub,2013-06-10 13:38:00,
2013-06-10 08:43:00,67.1,64.0,-100.00,NW,321,0.0,4.0,90,0.00,,,0.35,meteohub,2013-06-10 13:43:00,
2013-06-10 08:48:00,67.5,63.5,-100.00,NNW,336,4.0,4.0,87,0.00,,,0.35,meteohub,2013-06-10 13:48:00,
2013-06-10 08:53:00,68.2,63.9,-100.00,NW,306,0.0,9.0,86,0.00,,,0.35,meteohub,2013-06-10 13:53:00,
2013-06-10 08:58:00,68.7,63.0,-100.00,WNW,303,2.0,9.0,82,0.00,,,0.35,meteohub,2013-06-10 13:58:00,
2013-06-10 09:03:00,69.3,62.8,-100.00,WNW,297,0.0,9.0,80,0.00,,,0.35,meteohub,2013-06-10 14:03:00,
2013-06-10 09:08:00,69.1,61.9,-100.00,NNW,346,0.0,7.0,78,0.00,,,0.35,meteohub,2013-06-10 14:08:00,
2013-06-10 09:13:00,68.7,61.5,-100.00,NW,307,0.0,8.0,78,0.00,,,0.35,meteohub,2013-06-10 14:13:00,
2013-06-10 09:18:00,68.5,62.1,-100.00,WNW,289,0.0,8.0,80,0.00,,,0.35,meteohub,2013-06-10 14:18:00,
2013-06-10 09:23:00,68.2,61.7,-100.00,NW,317,0.0,8.0,80,0.00,,,0.35,meteohub,2013-06-10 14:23:00,
2013-06-10 09:28:00,67.8,61.7,-100.00,NW,314,0.0,7.0,81,0.00,,,0.35,meteohub,2013-06-10 14:28:00,
2013-06-10 09:33:00,67.8,61.7,-100.00,WNW,301,0.0,6.0,81,0.00,,,0.35,meteohub,2013-06-10 14:33:00,
2013-06-10 09:38:00,67.8,61.7,-100.00,WNW,300,0.0,6.0,81,0.00,,,0.35,meteohub,2013-06-10 14:38:00,
2013-06-10 09:43:00,67.8,61.7,-100.00,WNW,290,0.0,4.0,81,0.00,,,0.35,meteohub,2013-06-10 14:43:00,
2013-06-10 09:48:00,67.8,61.7,-100.00,NW,321,2.0,6.0,81,0.00,,,0.35,meteohub,2013-06-10 14:48:00,
2013-06-10 09:53:00,67.3,61.2,-100.00,NW,322,5.0,6.0,81,0.00,,,0.35,meteohub,2013-06-10 14:53:00,
2013-06-10 09:58:00,66.9,61.2,-100.00,NNW,327,0.0,7.0,82,0.00,,,0.35,meteohub,2013-06-10 14:58:00,
2013-06-10 10:03:00,67.5,62.1,-100.00,NW,313,0.0,7.0,83,0.00,,,0.35,meteohub,2013-06-10 15:03:00,
2013-06-10 10:08:00,67.8,62.4,-100.00,NW,323,4.0,7.0,83,0.00,,,0.35,meteohub,2013-06-10 15:08:00,
2013-06-10 10:13:00,67.8,61.7,-100.00,NW,319,4.0,7.0,81,0.00,,,0.35,meteohub,2013-06-10 15:13:00,
2013-06-10 10:18:00,67.8,61.3,-100.00,WNW,300,4.0,8.0,80,0.00,,,0.35,meteohub,2013-06-10 15:18:00,
2013-06-10 10:23:00,68.5,61.7,-100.00,North,350,6.0,8.0,79,0.00,,,0.35,meteohub,2013-06-10 15:23:00,
2013-06-10 10:28:00,69.3,62.1,-100.00,WNW,303,4.0,9.0,78,0.00,,,0.35,meteohub,2013-06-10 15:28:00,
2013-06-10 10:33:00,69.8,62.2,-100.00,NW,314,2.0,9.0,77,0.00,,,0.35,meteohub,2013-06-10 15:33:00,
2013-06-10 10:38:00,70.5,62.2,-100.00,WNW,294,2.0,9.0,75,0.00,,,0.35,meteohub,2013-06-10 15:38:00,
2013-06-10 10:43:00,71.8,62.6,-100.00,West,259,3.0,7.0,73,0.00,,,0.35,meteohub,2013-06-10 15:43:00,
2013-06-10 10:48:00,72.9,63.0,-100.00,NW,304,3.0,7.0,71,0.00,,,0.35,meteohub,2013-06-10 15:48:00,
2013-06-10 10:53:00,72.7,62.2,-100.00,NW,314,7.0,7.0,70,0.00,,,0.35,meteohub,2013-06-10 15:53:00,
2013-06-10 10:58:00,71.4,61.5,-100.00,NNW,329,8.0,10.0,71,0.00,,,0.35,meteohub,2013-06-10 15:58:00,
2013-06-10 11:03:00,71.1,61.9,-100.00,NW,307,6.0,12.0,73,0.00,,,0.35,meteohub,2013-06-10 16:03:00,
2013-06-10 11:08:00,72.0,63.1,-100.00,NW,305,2.0,12.0,74,0.00,,,0.35,meteohub,2013-06-10 16:08:00,
2013-06-10 11:13:00,72.9,62.4,-100.00,NW,308,4.0,12.0,70,0.00,,,0.35,meteohub,2013-06-10 16:13:00,
2013-06-10 11:18:00,72.9,63.3,-100.00,NW,322,8.0,11.0,72,0.00,,,0.35,meteohub,2013-06-10 16:18:00,
2013-06-10 11:23:00,73.0,62.6,-100.00,NW,315,6.0,12.0,70,0.00,,,0.35,meteohub,2013-06-10 16:23:00,
2013-06-10 11:28:00,73.2,62.4,-100.00,WNW,299,6.0,12.0,69,0.00,,,0.35,meteohub,2013-06-10 16:28:00,
2013-06-10 11:33:00,73.0,62.2,-100.00,NW,304,2.0,12.0,69,0.00,,,0.35,meteohub,2013-06-10 16:33:00,
2013-06-10 11:38:00,72.7,62.2,-100.00,NW,319,3.0,12.0,70,0.00,,,0.35,meteohub,2013-06-10 16:38:00,
2013-06-10 11:43:00,72.3,62.4,-100.00,West,263,0.0,12.0,71,0.00,,,0.35,meteohub,2013-06-10 16:43:00,
2013-06-10 11:48:00,72.9,62.4,-100.00,WNW,290,0.0,11.0,70,0.00,,,0.35,meteohub,2013-06-10 16:48:00,
2013-06-10 11:53:00,72.9,62.4,-100.00,WNW,302,0.0,8.0,70,0.00,,,0.35,meteohub,2013-06-10 16:53:00,
2013-06-10 11:58:00,72.9,62.4,-100.00,WNW,290,0.0,9.0,70,0.00,,,0.35,meteohub,2013-06-10 16:58:00,
2013-06-10 12:03:00,73.6,62.8,-100.00,West,281,5.0,10.0,69,0.00,,,0.35,meteohub,2013-06-10 17:03:00,
2013-06-10 12:08:00,74.1,62.4,-100.00,NW,320,4.0,10.0,67,0.00,,,0.35,meteohub,2013-06-10 17:08:00,
2013-06-10 12:13:00,74.3,63.1,-100.00,WNW,287,3.0,10.0,68,0.00,,,0.35,meteohub,2013-06-10 17:13:00,
2013-06-10 12:18:00,75.4,63.7,-100.00,WNW,291,7.0,11.0,67,0.00,,,0.35,meteohub,2013-06-10 17:18:00,
2013-06-10 12:23:00,76.5,63.0,-100.00,NW,318,6.0,12.0,63,0.00,,,0.35,meteohub,2013-06-10 17:23:00,
2013-06-10 12:28:00,76.3,63.1,-100.00,WSW,253,0.0,12.0,64,0.00,,,0.35,meteohub,2013-06-10 17:28:00,
2013-06-10 12:33:00,76.6,63.1,-100.00,West,266,0.0,12.0,63,0.00,,,0.35,meteohub,2013-06-10 17:33:00,
2013-06-10 12:38:00,77.4,62.8,-100.00,West,275,0.0,12.0,61,0.00,,,0.35,meteohub,2013-06-10 17:38:00,
2013-06-10 12:43:00,78.3,62.8,-100.00,NW,306,2.0,9.0,59,0.00,,,0.35,meteohub,2013-06-10 17:43:00,
2013-06-10 12:48:00,79.0,63.5,-100.00,West,270,0.0,9.0,59,0.00,,,0.35,meteohub,2013-06-10 17:48:00,
2013-06-10 12:53:00,79.3,62.8,-100.00,WNW,303,0.0,11.0,57,0.00,,,0.35,meteohub,2013-06-10 17:53:00,
2013-06-10 12:58:00,78.8,62.8,-100.00,West,281,3.0,11.0,58,0.00,,,0.35,meteohub,2013-06-10 17:58:00,
2013-06-10 13:03:00,78.1,63.1,-100.00,West,279,0.0,11.0,60,0.00,,,0.35,meteohub,2013-06-10 18:03:00,
2013-06-10 13:08:00,77.5,62.6,-100.00,WNW,294,0.0,10.0,60,0.00,,,0.35,meteohub,2013-06-10 18:08:00,
2013-06-10 13:13:00,77.4,62.8,-100.00,NW,309,3.0,10.0,61,0.00,,,0.35,meteohub,2013-06-10 18:13:00,
2013-06-10 13:18:00,77.5,62.6,-100.00,NW,309,1.0,9.0,60,0.00,,,0.35,meteohub,2013-06-10 18:18:00,
2013-06-10 13:23:00,77.7,62.2,-100.00,West,265,1.0,9.0,59,0.00,,,0.35,meteohub,2013-06-10 18:23:00,
2013-06-10 13:28:00,77.9,63.0,-100.00,NW,304,5.0,9.0,60,0.00,,,0.35,meteohub,2013-06-10 18:28:00,
2013-06-10 13:33:00,77.2,62.6,-100.00,NW,311,0.0,9.0,61,0.00,,,0.35,meteohub,2013-06-10 18:33:00,
2013-06-10 13:38:00,76.6,63.1,-100.00,WNW,290,0.0,9.0,63,0.00,,,0.35,meteohub,2013-06-10 18:38:00,
2013-06-10 13:43:00,76.6,62.6,-100.00,West,261,4.0,9.0,62,0.00,,,0.35,meteohub,2013-06-10 18:43:00,
2013-06-10 13:48:00,77.4,62.8,-100.00,West,264,0.0,10.0,61,0.00,,,0.35,meteohub,2013-06-10 18:48:00,
2013-06-10 13:53:00,77.9,63.0,-100.00,WNW,302,0.0,10.0,60,0.00,,,0.35,meteohub,2013-06-10 18:53:00,
2013-06-10 13:58:00,78.1,62.6,-100.00,NW,316,0.0,10.0,59,0.00,,,0.35,meteohub,2013-06-10 18:58:00,
2013-06-10 14:03:00,78.3,63.3,-100.00,West,275,0.0,9.0,60,0.00,,,0.35,meteohub,2013-06-10 19:03:00,
2013-06-10 14:08:00,78.6,63.1,-100.00,WNW,300,0.0,9.0,59,0.00,,,0.35,meteohub,2013-06-10 19:08:00,
2013-06-10 14:13:00,79.2,63.7,-100.00,WSW,256,0.0,12.0,59,0.00,,,0.35,meteohub,2013-06-10 19:13:00,
2013-06-10 14:18:00,80.2,63.7,-100.00,WSW,257,0.0,12.0,57,0.00,,,0.35,meteohub,2013-06-10 19:18:00,
2013-06-10 14:23:00,80.8,63.7,-100.00,West,277,5.0,12.0,56,0.00,,,0.35,meteohub,2013-06-10 19:23:00,
2013-06-10 14:28:00,80.4,62.8,-100.00,West,279,6.0,10.0,55,0.00,,,0.35,meteohub,2013-06-10 19:28:00,
2013-06-10 14:33:00,81.1,63.5,-100.00,SW,229,2.0,12.0,55,0.00,,,0.35,meteohub,2013-06-10 19:33:00,
2013-06-10 14:38:00,81.9,64.0,-100.00,West,279,6.0,12.0,55,0.00,,,0.35,meteohub,2013-06-10 19:38:00,
2013-06-10 14:43:00,82.6,63.7,-100.00,WSW,256,4.0,12.0,53,0.00,,,0.35,meteohub,2013-06-10 19:43:00,
2013-06-10 14:48:00,82.2,64.4,-100.00,WNW,291,4.0,13.0,55,0.00,,,0.35,meteohub,2013-06-10 19:48:00,
2013-06-10 14:53:00,82.2,63.9,-100.00,NW,325,1.0,13.0,54,0.00,,,0.35,meteohub,2013-06-10 19:53:00,
2013-06-10 14:59:00,81.0,63.3,-100.00,NW,319,6.0,13.0,55,0.00,,,0.35,meteohub,2013-06-10 19:59:00,
2013-06-10 15:04:00,79.3,62.8,-100.00,WNW,285,9.0,12.0,57,0.00,,,0.35,meteohub,2013-06-10 20:04:00,
2013-06-10 15:09:00,79.2,63.1,-100.00,WNW,294,6.0,13.0,58,0.00,,,0.35,meteohub,2013-06-10 20:09:00,
2013-06-10 15:14:00,79.9,62.8,-100.00,WNW,296,2.0,13.0,56,0.00,,,0.35,meteohub,2013-06-10 20:14:00,
2013-06-10 15:19:00,80.6,63.5,-100.00,West,269,0.0,15.0,56,0.00,,,0.35,meteohub,2013-06-10 20:19:00,
2013-06-10 15:24:00,80.4,62.8,-100.00,West,281,10.0,15.0,55,0.00,,,0.35,meteohub,2013-06-10 20:24:00,
2013-06-10 15:29:00,80.2,62.6,-100.00,WNW,288,3.0,14.0,55,0.00,,,0.35,meteohub,2013-06-10 20:29:00,
2013-06-10 15:34:00,79.9,63.3,-100.00,West,265,5.0,14.0,57,0.00,,,0.35,meteohub,2013-06-10 20:34:00,
2013-06-10 15:39:00,79.3,62.8,-100.00,West,267,1.0,14.0,57,0.00,,,0.35,meteohub,2013-06-10 20:39:00,
2013-06-10 15:44:00,78.4,63.0,-100.00,NW,304,5.0,13.0,59,0.00,,,0.35,meteohub,2013-06-10 20:44:00,
2013-06-10 15:49:00,78.3,62.8,-100.00,WNW,303,1.0,12.0,59,0.00,,,0.35,meteohub,2013-06-10 20:49:00,
2013-06-10 15:54:00,78.6,63.1,-100.00,WNW,298,0.0,11.0,59,0.00,,,0.35,meteohub,2013-06-10 20:54:00,
2013-06-10 15:59:00,79.5,63.5,-100.00,West,271,0.0,12.0,58,0.00,,,0.35,meteohub,2013-06-10 20:59:00,
2013-06-10 16:04:00,80.6,64.0,-100.00,NW,317,6.0,12.0,57,0.00,,,0.35,meteohub,2013-06-10 21:04:00,
2013-06-10 16:09:00,79.3,62.8,-100.00,NNW,333,5.0,12.0,57,0.00,,,0.35,meteohub,2013-06-10 21:09:00,
2013-06-10 16:14:00,78.6,63.1,-100.00,NW,313,6.0,11.0,59,0.00,,,0.35,meteohub,2013-06-10 21:14:00,
2013-06-10 16:19:00,79.0,63.0,-100.00,West,261,1.0,11.0,58,0.00,,,0.35,meteohub,2013-06-10 21:19:00,
2013-06-10 16:24:00,79.5,63.9,-100.00,WNW,286,0.0,11.0,59,0.00,,,0.35,meteohub,2013-06-10 21:24:00,
2013-06-10 16:29:00,79.5,63.0,-100.00,NW,315,3.0,10.0,57,0.00,,,0.35,meteohub,2013-06-10 21:29:00,
2013-06-10 16:34:00,79.0,63.0,-100.00,NW,306,9.0,10.0,58,0.00,,,0.35,meteohub,2013-06-10 21:34:00,
2013-06-10 16:39:00,78.4,61.9,-100.00,NW,306,4.0,10.0,57,0.00,,,0.35,meteohub,2013-06-10 21:39:00,
2013-06-10 16:44:00,78.1,62.6,-100.00,WNW,300,2.0,12.0,59,0.00,,,0.35,meteohub,2013-06-10 21:44:00,
2013-06-10 16:49:00,78.3,62.8,-100.00,West,272,2.0,12.0,59,0.00,,,0.35,meteohub,2013-06-10 21:49:00,
2013-06-10 16:54:00,79.0,63.5,-100.00,NW,316,9.0,12.0,59,0.00,,,0.35,meteohub,2013-06-10 21:54:00,
2013-06-10 16:59:00,79.2,62.6,-100.00,WNW,290,6.0,9.0,57,0.00,,,0.35,meteohub,2013-06-10 21:59:00,
2013-06-10 17:04:00,79.3,62.8,-100.00,WNW,298,2.0,9.0,57,0.00,,,0.35,meteohub,2013-06-10 22:04:00,
2013-06-10 17:09:00,79.2,63.7,-100.00,NW,325,2.0,11.0,59,0.00,,,0.35,meteohub,2013-06-10 22:09:00,
2013-06-10 17:14:00,79.0,63.0,-100.00,WNW,293,4.0,11.0,58,0.00,,,0.35,meteohub,2013-06-10 22:14:00,
2013-06-10 17:19:00,78.8,62.8,-100.00,NNW,334,6.0,11.0,58,0.00,,,0.35,meteohub,2013-06-10 22:19:00,
2013-06-10 17:24:00,78.6,63.1,-100.00,NW,325,1.0,10.0,59,0.00,,,0.35,meteohub,2013-06-10 22:24:00,
2013-06-10 17:29:00,78.4,63.3,-100.00,NW,314,0.0,9.0,60,0.00,,,0.35,meteohub,2013-06-10 22:29:00,
2013-06-10 17:34:00,78.6,62.6,-100.00,NW,308,0.0,9.0,58,0.00,,,0.35,meteohub,2013-06-10 22:34:00,
2013-06-10 17:39:00,79.0,63.0,-100.00,NW,306,0.0,6.0,58,0.00,,,0.35,meteohub,2013-06-10 22:39:00,
2013-06-10 17:44:00,79.2,63.1,-100.00,West,267,2.0,6.0,58,0.00,,,0.35,meteohub,2013-06-10 22:44:00,
2013-06-10 17:49:00,79.3,63.3,-100.00,WNW,287,0.0,5.0,58,0.00,,,0.35,meteohub,2013-06-10 22:49:00,
2013-06-10 17:54:00,79.2,63.1,-100.00,WNW,301,2.0,6.0,58,0.00,,,0.35,meteohub,2013-06-10 22:54:00,
2013-06-10 17:59:00,79.0,63.0,-100.00,WNW,302,0.0,7.0,58,0.00,,,0.35,meteohub,2013-06-10 22:59:00,
2013-06-10 18:04:00,78.6,63.1,-100.00,WNW,291,1.0,7.0,59,0.00,,,0.35,meteohub,2013-06-10 23:04:00,
2013-06-10 18:09:00,79.0,63.0,-100.00,WNW,298,3.0,7.0,58,0.00,,,0.35,meteohub,2013-06-10 23:09:00,
2013-06-10 18:14:00,78.6,63.1,-100.00,NW,322,0.0,6.0,59,0.00,,,0.35,meteohub,2013-06-10 23:14:00,
2013-06-10 18:19:00,78.6,63.1,-100.00,NNW,331,0.0,6.0,59,0.00,,,0.35,meteohub,2013-06-10 23:19:00,
2013-06-10 18:24:00,78.6,62.6,-100.00,NNW,327,0.0,6.0,58,0.00,,,0.35,meteohub,2013-06-10 23:24:00,
2013-06-10 18:29:00,78.6,62.6,-100.00,NW,305,2.0,6.0,58,0.00,,,0.35,meteohub,2013-06-10 23:29:00,
2013-06-10 18:34:00,79.0,63.0,-100.00,NW,304,0.0,5.0,58,0.00,,,0.35,meteohub,2013-06-10 23:34:00,
2013-06-10 18:39:00,79.0,63.5,-100.00,NW,304,0.0,4.0,59,0.00,,,0.35,meteohub,2013-06-10 23:39:00,
2013-06-10 18:44:00,78.4,63.0,-100.00,NW,304,0.0,4.0,59,0.00,,,0.35,meteohub,2013-06-10 23:44:00,
2013-06-10 18:49:00,78.1,63.5,-100.00,WNW,302,0.0,4.0,61,0.00,,,0.35,meteohub,2013-06-10 23:49:00,
2013-06-10 18:54:00,78.3,63.3,-100.00,WNW,302,0.0,4.0,60,0.00,,,0.35,meteohub,2013-06-10 23:54:00,
2013-06-10 18:59:00,78.3,63.3,-100.00,WNW,302,0.0,4.0,60,0.00,,,0.35,meteohub,2013-06-10 23:59:00,
2013-06-10 19:04:00,78.1,63.5,-100.00,WNW,303,0.0,5.0,61,0.00,,,0.35,meteohub,2013-06-11 00:04:00,
2013-06-10 19:09:00,77.9,63.3,-100.00,NW,315,0.0,5.0,61,0.00,,,0.00,meteohub,2013-06-11 00:09:00,
2013-06-10 19:14:00,77.5,63.0,-100.00,NW,323,0.0,5.0,61,0.00,,,0.00,meteohub,2013-06-11 00:14:00,
2013-06-10 19:19:00,77.4,62.8,-100.00,NW,323,0.0,5.0,61,0.00,,,0.00,meteohub,2013-06-11 00:19:00,
2013-06-10 19:24:00,76.8,62.8,-100.00,NW,323,0.0,5.0,62,0.00,,,0.00,meteohub,2013-06-11 00:24:00,
2013-06-10 19:29:00,76.8,63.7,-100.00,NW,322,0.0,5.0,64,0.00,,,0.00,meteohub,2013-06-11 00:29:00,
2013-06-10 19:34:00,76.8,63.3,-100.00,NW,323,0.0,2.0,63,0.00,,,0.00,meteohub,2013-06-11 00:34:00,
2013-06-10 19:39:00,76.8,62.8,-100.00,NW,322,0.0,2.0,62,0.00,,,0.00,meteohub,2013-06-11 00:39:00,
2013-06-10 19:44:00,77.2,63.1,-100.00,NW,322,0.0,1.0,62,0.00,,,0.00,meteohub,2013-06-11 00:44:00,
2013-06-10 19:49:00,77.2,63.1,-100.00,NW,323,0.0,2.0,62,0.00,,,0.00,meteohub,2013-06-11 00:49:00,
2013-06-10 19:54:00,77.2,63.1,-100.00,NW,323,0.0,2.0,62,0.00,,,0.00,meteohub,2013-06-11 00:54:00,
2013-06-10 19:59:00,77.2,63.7,-100.00,NW,322,0.0,2.0,63,0.00,,,0.00,meteohub,2013-06-11 00:59:00,
2013-06-10 20:04:00,76.8,63.3,-100.00,NW,323,0.0,1.0,63,0.00,,,0.00,meteohub,2013-06-11 01:04:00,
2013-06-10 20:09:00,76.5,63.3,-100.00,NW,323,0.0,0.0,64,0.00,,,0.00,meteohub,2013-06-11 01:09:00,
2013-06-10 20:14:00,75.4,63.7,-100.00,NW,322,0.0,0.0,67,0.00,,,0.00,meteohub,2013-06-11 01:14:00,
2013-06-10 20:19:00,74.5,62.8,-100.00,NW,322,0.0,0.0,67,0.00,,,0.00,meteohub,2013-06-11 01:19:00,
2013-06-10 20:24:00,73.9,63.1,-100.00,NW,323,0.0,0.0,69,0.00,,,0.00,meteohub,2013-06-11 01:24:00,
2013-06-10 20:29:00,73.4,63.0,-100.00,NW,323,0.0,0.0,70,0.00,,,0.00,meteohub,2013-06-11 01:29:00,
2013-06-10 20:34:00,72.9,63.0,-100.00,NW,322,0.0,0.0,71,0.00,,,0.00,meteohub,2013-06-11 01:34:00,
2013-06-10 20:39:00,72.3,62.8,-100.00,NW,323,0.0,0.0,72,0.00,,,0.00,meteohub,2013-06-11 01:39:00,
2013-06-10 20:44:00,72.0,62.8,-100.00,NW,323,0.0,0.0,73,0.00,,,0.00,meteohub,2013-06-11 01:44:00,
2013-06-10 20:49:00,71.6,62.4,-100.00,NW,322,0.0,0.0,73,0.00,,,0.00,meteohub,2013-06-11 01:49:00,
2013-06-10 20:54:00,71.2,62.6,-100.00,NW,323,0.0,0.0,74,0.00,,,0.00,meteohub,2013-06-11 01:54:00,
2013-06-10 20:59:00,70.9,62.6,-100.00,NW,323,0.0,0.0,75,0.00,,,0.00,meteohub,2013-06-11 01:59:00,
2013-06-10 21:04:00,70.5,62.6,-100.00,NW,323,0.0,0.0,76,0.00,,,0.00,meteohub,2013-06-11 02:04:00,
2013-06-10 21:09:00,70.2,62.6,-100.00,NW,322,0.0,0.0,77,0.00,,,0.00,meteohub,2013-06-11 02:09:00,
2013-06-10 21:14:00,70.0,62.4,-100.00,NW,323,0.0,0.0,77,0.00,,,0.00,meteohub,2013-06-11 02:14:00,
2013-06-10 21:19:00,69.6,62.1,-100.00,NW,323,0.0,0.0,77,0.00,,,0.00,meteohub,2013-06-11 02:19:00,
2013-06-10 21:24:00,69.4,62.2,-100.00,NW,323,0.0,0.0,78,0.00,,,0.00,meteohub,2013-06-11 02:24:00,
2013-06-10 21:29:00,69.3,62.1,-100.00,NW,322,0.0,0.0,78,0.00,,,0.00,meteohub,2013-06-11 02:29:00,
2013-06-10 21:34:00,69.1,62.2,-100.00,NW,323,0.0,0.0,79,0.00,,,0.00,meteohub,2013-06-11 02:34:00,
2013-06-10 21:39:00,69.1,61.9,-100.00,NW,322,0.0,0.0,78,0.00,,,0.00,meteohub,2013-06-11 02:39:00,
2013-06-10 21:44:00,68.9,61.7,-100.00,NW,323,0.0,0.0,78,0.00,,,0.00,meteohub,2013-06-11 02:44:00,
2013-06-10 21:49:00,68.7,61.9,-100.00,NW,323,0.0,0.0,79,0.00,,,0.00,meteohub,2013-06-11 02:49:00,
2013-06-10 21:54:00,68.5,62.1,-100.00,NW,323,0.0,0.0,80,0.00,,,0.00,meteohub,2013-06-11 02:54:00,
2013-06-10 21:59:00,68.2,61.7,-100.00,NW,322,0.0,0.0,80,0.00,,,0.00,meteohub,2013-06-11 02:59:00,
2013-06-10 22:04:00,68.0,61.5,-100.00,NW,323,0.0,0.0,80,0.00,,,0.00,meteohub,2013-06-11 03:04:00,
2013-06-10 22:10:00,67.8,61.3,-100.00,NW,323,0.0,0.0,80,0.00,,,0.00,meteohub,2013-06-11 03:10:00,
2013-06-10 22:15:00,67.8,61.3,-100.00,NW,322,0.0,0.0,80,0.00,,,0.00,meteohub,2013-06-11 03:15:00,
2013-06-10 22:20:00,67.8,61.3,-100.00,NW,323,0.0,0.0,80,0.00,,,0.00,meteohub,2013-06-11 03:20:00,
2013-06-10 22:25:00,67.8,61.3,-100.00,NW,323,0.0,0.0,80,0.00,,,0.00,meteohub,2013-06-11 03:25:00,
2013-06-10 22:30:00,67.6,61.2,-100.00,NW,322,0.0,0.0,80,0.00,,,0.00,meteohub,2013-06-11 03:30:00,
2013-06-10 22:35:00,67.5,61.2,-100.00,NW,323,0.0,0.0,80,0.00,,,0.00,meteohub,2013-06-11 03:35:00,
2013-06-10 22:40:00,67.5,61.3,-100.00,NW,323,0.0,0.0,81,0.00,,,0.00,meteohub,2013-06-11 03:40:00,
2013-06-10 22:45:00,67.5,61.3,-100.00,NW,322,0.0,0.0,81,0.00,,,0.00,meteohub,2013-06-11 03:45:00,
2013-06-10 22:50:00,67.3,61.2,-100.00,NW,322,0.0,0.0,81,0.00,,,0.00,meteohub,2013-06-11 03:50:00,
2013-06-10 22:55:00,67.1,61.2,-100.00,NW,322,0.0,0.0,81,0.00,,,0.00,meteohub,2013-06-11 03:55:00,
2013-06-10 23:00:00,66.9,61.0,-100.00,NW,323,0.0,0.0,81,0.00,,,0.00,meteohub,2013-06-11 04:00:00,
2013-06-10 23:01:00,66.9,61.0,-100.00,NW,323,0.0,0.0,81,0.00,,,0.00,meteohub,2013-06-11 04:01:00,
2013-06-10 23:07:00,66.7,61.0,-100.00,NW,323,0.0,0.0,82,0.00,,,0.00,meteohub,2013-06-11 04:07:00,
2013-06-10 23:11:00,66.6,61.0,-100.00,NW,323,0.0,0.0,82,0.00,,,0.00,meteohub,2013-06-11 04:11:00,
2013-06-10 23:16:00,66.6,61.0,-100.00,NW,323,0.0,0.0,82,0.00,,,0.00,meteohub,2013-06-11 04:16:00,
2013-06-10 23:21:00,66.4,61.0,-100.00,NW,322,0.0,0.0,83,0.00,,,0.00,meteohub,2013-06-11 04:21:00,
2013-06-10 23:26:00,66.2,60.8,-100.00,NW,322,0.0,0.0,83,0.00,,,0.00,meteohub,2013-06-11 04:26:00,
2013-06-10 23:31:00,66.0,60.6,-100.00,NW,322,0.0,0.0,83,0.00,,,0.00,meteohub,2013-06-11 04:31:00,
2013-06-10 23:36:00,66.0,61.0,-100.00,NW,323,0.0,0.0,84,0.00,,,0.00,meteohub,2013-06-11 04:36:00,
2013-06-10 23:41:00,65.8,60.8,-100.00,NW,323,0.0,0.0,84,0.00,,,0.00,meteohub,2013-06-11 04:41:00,
2013-06-10 23:46:00,66.0,61.0,-100.00,NW,322,0.0,0.0,84,0.00,,,0.00,meteohub,2013-06-11 04:46:00,
2013-06-10 23:51:00,66.0,60.6,-100.00,NW,323,0.0,0.0,83,0.00,,,0.00,meteohub,2013-06-11 04:51:00,
2013-06-10 23:56:00,66.0,60.6,-100.00,NW,322,0.0,0.0,83,0.00,,,0.00,meteohub,2013-06-11 04:56:00,